sensor_id;sensor_type;location;lat;lon;timestamp;P1;durP1;ratioP1;P2;durP2;ratioP2
44694;SDS011;32845;59.422;17.930;2022-09-27T00:00:43;5.03;;;2.88;;
44694;SDS011;32845;59.422;17.930;2022-09-27T00:05:14;4.68;;;2.50;;
44694;SDS011;32845;59.422;17.930;2022-09-27T00:09:50;6.55;;;2.70;;
44694;SDS011;32845;59.422;17.930;2022-09-27T00:14:21;8.15;;;3.10;;
44694;SDS011;32845;59.422;17.930;2022-09-27T00:18:51;5.97;;;2.72;;
44694;SDS011;32845;59.422;17.930;2022-09-27T00:23:22;6.63;;;2.83;;
44694;SDS011;32845;59.422;17.930;2022-09-27T00:27:53;4.53;;;2.60;;
44694;SDS011;32845;59.422;17.930;2022-09-27T00:32:24;4.05;;;2.50;;
44694;SDS011;32845;59.422;17.930;2022-09-27T00:36:54;5.90;;;2.25;;
44694;SDS011;32845;59.422;17.930;2022-09-27T00:41:27;8.35;;;1.90;;
44694;SDS011;32845;59.422;17.930;2022-09-27T00:46:00;4.80;;;2.00;;
44694;SDS011;32845;59.422;17.930;2022-09-27T00:50:36;3.88;;;1.58;;
44694;SDS011;32845;59.422;17.930;2022-09-27T00:55:13;5.27;;;2.00;;
44694;SDS011;32845;59.422;17.930;2022-09-27T00:59:58;4.38;;;1.60;;
44694;SDS011;32845;59.422;17.930;2022-09-27T01:04:41;4.20;;;1.80;;
44694;SDS011;32845;59.422;17.930;2022-09-27T01:09:13;2.30;;;1.50;;
44694;SDS011;32845;59.422;17.930;2022-09-27T01:13:51;6.25;;;1.60;;
44694;SDS011;32845;59.422;17.930;2022-09-27T01:18:35;2.83;;;1.08;;
44694;SDS011;32845;59.422;17.930;2022-09-27T01:23:49;4.60;;;1.05;;
44694;SDS011;32845;59.422;17.930;2022-09-27T01:33:07;3.30;;;0.98;;
44694;SDS011;32845;59.422;17.930;2022-09-27T01:47:21;2.33;;;0.88;;
44694;SDS011;32845;59.422;17.930;2022-09-27T01:51:59;2.22;;;0.80;;
44694;SDS011;32845;59.422;17.930;2022-09-27T01:56:36;5.88;;;0.95;;
44694;SDS011;32845;59.422;17.930;2022-09-27T02:01:11;4.68;;;1.00;;
44694;SDS011;32845;59.422;17.930;2022-09-27T02:05:50;3.30;;;0.90;;
44694;SDS011;32845;59.422;17.930;2022-09-27T02:10:27;10.85;;;1.30;;
44694;SDS011;32845;59.422;17.930;2022-09-27T02:15:04;3.70;;;1.30;;
44694;SDS011;32845;59.422;17.930;2022-09-27T02:29:33;5.57;;;1.03;;
44694;SDS011;32845;59.422;17.930;2022-09-27T02:34:13;5.55;;;1.08;;
44694;SDS011;32845;59.422;17.930;2022-09-27T02:39:04;5.60;;;1.17;;
44694;SDS011;32845;59.422;17.930;2022-09-27T02:43:36;2.33;;;0.80;;
44694;SDS011;32845;59.422;17.930;2022-09-27T02:48:18;3.10;;;0.85;;
44694;SDS011;32845;59.422;17.930;2022-09-27T03:07:22;7.78;;;1.20;;
44694;SDS011;32845;59.422;17.930;2022-09-27T03:11:53;3.85;;;1.10;;
44694;SDS011;32845;59.422;17.930;2022-09-27T03:16:24;3.38;;;1.48;;
44694;SDS011;32845;59.422;17.930;2022-09-27T03:20:54;4.22;;;1.70;;
44694;SDS011;32845;59.422;17.930;2022-09-27T03:25:25;2.40;;;0.80;;
44694;SDS011;32845;59.422;17.930;2022-09-27T03:29:56;2.22;;;0.93;;
44694;SDS011;32845;59.422;17.930;2022-09-27T03:34:27;8.38;;;1.10;;
44694;SDS011;32845;59.422;17.930;2022-09-27T03:38:58;4.60;;;1.20;;
44694;SDS011;32845;59.422;17.930;2022-09-27T03:43:29;5.05;;;1.52;;
44694;SDS011;32845;59.422;17.930;2022-09-27T03:48:00;4.88;;;1.15;;
44694;SDS011;32845;59.422;17.930;2022-09-27T03:52:30;5.43;;;1.30;;
44694;SDS011;32845;59.422;17.930;2022-09-27T03:57:01;5.10;;;1.23;;
44694;SDS011;32845;59.422;17.930;2022-09-27T04:01:32;6.68;;;1.27;;
44694;SDS011;32845;59.422;17.930;2022-09-27T04:06:04;3.20;;;1.20;;
44694;SDS011;32845;59.422;17.930;2022-09-27T04:10:35;4.00;;;1.35;;
44694;SDS011;32845;59.422;17.930;2022-09-27T04:15:07;4.35;;;1.27;;
44694;SDS011;32845;59.422;17.930;2022-09-27T04:19:38;5.28;;;1.15;;
44694;SDS011;32845;59.422;17.930;2022-09-27T04:24:09;6.07;;;1.20;;
44694;SDS011;32845;59.422;17.930;2022-09-27T04:28:40;3.60;;;1.25;;
44694;SDS011;32845;59.422;17.930;2022-09-27T04:33:11;1.95;;;1.20;;
44694;SDS011;32845;59.422;17.930;2022-09-27T04:37:42;2.88;;;0.95;;
44694;SDS011;32845;59.422;17.930;2022-09-27T04:42:14;2.65;;;1.13;;
44694;SDS011;32845;59.422;17.930;2022-09-27T04:46:45;8.75;;;1.00;;
44694;SDS011;32845;59.422;17.930;2022-09-27T04:51:16;3.15;;;1.20;;
44694;SDS011;32845;59.422;17.930;2022-09-27T04:55:48;1.63;;;1.02;;
44694;SDS011;32845;59.422;17.930;2022-09-27T05:00:19;2.88;;;1.13;;
44694;SDS011;32845;59.422;17.930;2022-09-27T05:04:50;2.10;;;0.85;;
44694;SDS011;32845;59.422;17.930;2022-09-27T05:09:21;7.55;;;1.45;;
44694;SDS011;32845;59.422;17.930;2022-09-27T05:13:51;6.90;;;1.05;;
44694;SDS011;32845;59.422;17.930;2022-09-27T05:18:22;3.22;;;1.13;;
44694;SDS011;32845;59.422;17.930;2022-09-27T05:22:53;3.83;;;1.00;;
44694;SDS011;32845;59.422;17.930;2022-09-27T05:27:23;4.38;;;1.48;;
44694;SDS011;32845;59.422;17.930;2022-09-27T05:31:54;2.67;;;1.20;;
44694;SDS011;32845;59.422;17.930;2022-09-27T05:36:25;6.95;;;1.33;;
44694;SDS011;32845;59.422;17.930;2022-09-27T05:40:56;4.40;;;1.42;;
44694;SDS011;32845;59.422;17.930;2022-09-27T05:45:26;6.60;;;1.30;;
44694;SDS011;32845;59.422;17.930;2022-09-27T05:49:57;8.45;;;2.17;;
44694;SDS011;32845;59.422;17.930;2022-09-27T05:54:28;5.78;;;1.48;;
44694;SDS011;32845;59.422;17.930;2022-09-27T05:58:59;4.30;;;1.50;;
44694;SDS011;32845;59.422;17.930;2022-09-27T06:03:30;3.55;;;1.50;;
44694;SDS011;32845;59.422;17.930;2022-09-27T06:08:01;4.68;;;1.52;;
44694;SDS011;32845;59.422;17.930;2022-09-27T06:12:37;14.02;;;2.03;;
44694;SDS011;32845;59.422;17.930;2022-09-27T06:17:07;1.85;;;1.15;;
44694;SDS011;32845;59.422;17.930;2022-09-27T06:21:38;7.82;;;1.58;;
44694;SDS011;32845;59.422;17.930;2022-09-27T06:26:09;6.43;;;1.70;;
44694;SDS011;32845;59.422;17.930;2022-09-27T06:30:41;7.18;;;1.50;;
44694;SDS011;32845;59.422;17.930;2022-09-27T06:35:13;3.92;;;1.40;;
44694;SDS011;32845;59.422;17.930;2022-09-27T06:39:44;6.45;;;1.27;;
44694;SDS011;32845;59.422;17.930;2022-09-27T06:44:18;6.30;;;1.02;;
44694;SDS011;32845;59.422;17.930;2022-09-27T06:48:53;6.20;;;1.27;;
44694;SDS011;32845;59.422;17.930;2022-09-27T06:53:25;2.85;;;1.10;;
44694;SDS011;32845;59.422;17.930;2022-09-27T06:57:56;2.53;;;1.20;;
44694;SDS011;32845;59.422;17.930;2022-09-27T07:02:47;6.10;;;1.15;;
44694;SDS011;32845;59.422;17.930;2022-09-27T07:07:17;6.72;;;1.20;;
44694;SDS011;32845;59.422;17.930;2022-09-27T07:11:48;9.18;;;1.40;;
44694;SDS011;32845;59.422;17.930;2022-09-27T07:16:19;5.30;;;1.30;;
44694;SDS011;32845;59.422;17.930;2022-09-27T07:20:49;7.72;;;1.20;;
44694;SDS011;32845;59.422;17.930;2022-09-27T07:25:20;3.33;;;0.85;;
44694;SDS011;32845;59.422;17.930;2022-09-27T07:29:51;3.30;;;0.95;;
44694;SDS011;32845;59.422;17.930;2022-09-27T07:34:23;5.43;;;0.90;;
44694;SDS011;32845;59.422;17.930;2022-09-27T07:38:53;4.22;;;1.33;;
44694;SDS011;32845;59.422;17.930;2022-09-27T07:43:25;4.20;;;1.08;;
44694;SDS011;32845;59.422;17.930;2022-09-27T07:47:55;3.13;;;0.85;;
44694;SDS011;32845;59.422;17.930;2022-09-27T07:52:26;3.55;;;0.85;;
44694;SDS011;32845;59.422;17.930;2022-09-27T07:56:57;1.90;;;0.95;;
44694;SDS011;32845;59.422;17.930;2022-09-27T08:01:28;4.57;;;0.95;;
44694;SDS011;32845;59.422;17.930;2022-09-27T08:06:02;2.38;;;0.70;;
44694;SDS011;32845;59.422;17.930;2022-09-27T08:10:33;7.63;;;1.05;;
44694;SDS011;32845;59.422;17.930;2022-09-27T08:15:05;7.22;;;1.02;;
44694;SDS011;32845;59.422;17.930;2022-09-27T08:19:36;5.20;;;1.10;;
44694;SDS011;32845;59.422;17.930;2022-09-27T08:24:07;3.03;;;0.85;;
44694;SDS011;32845;59.422;17.930;2022-09-27T08:28:37;3.95;;;0.80;;
44694;SDS011;32845;59.422;17.930;2022-09-27T08:33:08;3.10;;;0.98;;
44694;SDS011;32845;59.422;17.930;2022-09-27T08:37:39;5.13;;;0.80;;
44694;SDS011;32845;59.422;17.930;2022-09-27T08:47:16;3.50;;;0.70;;
44694;SDS011;32845;59.422;17.930;2022-09-27T08:51:54;7.70;;;1.40;;
44694;SDS011;32845;59.422;17.930;2022-09-27T08:56:27;2.90;;;0.80;;
44694;SDS011;32845;59.422;17.930;2022-09-27T09:00:59;7.38;;;1.00;;
44694;SDS011;32845;59.422;17.930;2022-09-27T09:05:33;5.50;;;1.17;;
44694;SDS011;32845;59.422;17.930;2022-09-27T09:10:21;16.65;;;2.03;;
44694;SDS011;32845;59.422;17.930;2022-09-27T09:30:01;4.65;;;1.60;;
44694;SDS011;32845;59.422;17.930;2022-09-27T09:34:55;8.15;;;2.47;;
44694;SDS011;32845;59.422;17.930;2022-09-27T09:39:43;7.03;;;2.40;;
44694;SDS011;32845;59.422;17.930;2022-09-27T09:44:22;9.50;;;2.47;;
44694;SDS011;32845;59.422;17.930;2022-09-27T09:54:04;5.95;;;3.00;;
44694;SDS011;32845;59.422;17.930;2022-09-27T09:59:02;6.35;;;2.97;;
44694;SDS011;32845;59.422;17.930;2022-09-27T10:03:40;4.40;;;3.10;;
44694;SDS011;32845;59.422;17.930;2022-09-27T10:08:17;6.50;;;2.97;;
44694;SDS011;32845;59.422;17.930;2022-09-27T10:12:50;7.57;;;2.50;;
44694;SDS011;32845;59.422;17.930;2022-09-27T10:17:22;5.65;;;2.80;;
44694;SDS011;32845;59.422;17.930;2022-09-27T10:22:02;6.28;;;3.13;;
44694;SDS011;32845;59.422;17.930;2022-09-27T10:26:39;5.85;;;2.95;;
44694;SDS011;32845;59.422;17.930;2022-09-27T10:31:18;6.13;;;3.40;;
44694;SDS011;32845;59.422;17.930;2022-09-27T10:35:49;7.38;;;4.13;;
44694;SDS011;32845;59.422;17.930;2022-09-27T10:40:25;5.43;;;3.83;;
44694;SDS011;32845;59.422;17.930;2022-09-27T10:45:19;5.82;;;3.90;;
44694;SDS011;32845;59.422;17.930;2022-09-27T10:49:51;6.10;;;4.22;;
44694;SDS011;32845;59.422;17.930;2022-09-27T10:54:34;7.40;;;4.20;;
44694;SDS011;32845;59.422;17.930;2022-09-27T10:59:12;14.18;;;4.78;;
44694;SDS011;32845;59.422;17.930;2022-09-27T11:03:48;7.80;;;4.65;;
44694;SDS011;32845;59.422;17.930;2022-09-27T11:08:30;8.38;;;5.47;;
44694;SDS011;32845;59.422;17.930;2022-09-27T11:13:15;8.35;;;6.13;;
44694;SDS011;32845;59.422;17.930;2022-09-27T11:17:54;18.92;;;6.75;;
44694;SDS011;32845;59.422;17.930;2022-09-27T11:32:29;13.47;;;8.10;;
44694;SDS011;32845;59.422;17.930;2022-09-27T11:46:59;18.08;;;9.07;;
44694;SDS011;32845;59.422;17.930;2022-09-27T12:11:18;13.23;;;8.57;;
44694;SDS011;32845;59.422;17.930;2022-09-27T12:16:10;12.48;;;8.40;;
44694;SDS011;32845;59.422;17.930;2022-09-27T12:20:45;17.13;;;9.00;;
44694;SDS011;32845;59.422;17.930;2022-09-27T12:25:16;12.95;;;8.35;;
44694;SDS011;32845;59.422;17.930;2022-09-27T12:29:48;17.05;;;9.13;;
44694;SDS011;32845;59.422;17.930;2022-09-27T12:39:10;15.80;;;8.37;;
44694;SDS011;32845;59.422;17.930;2022-09-27T12:43:54;13.55;;;8.65;;
44694;SDS011;32845;59.422;17.930;2022-09-27T12:53:15;18.08;;;8.80;;
44694;SDS011;32845;59.422;17.930;2022-09-27T13:12:25;12.60;;;9.30;;
44694;SDS011;32845;59.422;17.930;2022-09-27T13:16:58;17.20;;;9.35;;
44694;SDS011;32845;59.422;17.930;2022-09-27T13:26:22;17.05;;;8.82;;
44694;SDS011;32845;59.422;17.930;2022-09-27T13:31:13;17.80;;;9.00;;
44694;SDS011;32845;59.422;17.930;2022-09-27T13:40:45;19.27;;;9.13;;
44694;SDS011;32845;59.422;17.930;2022-09-27T13:45:25;12.98;;;8.35;;
44694;SDS011;32845;59.422;17.930;2022-09-27T13:54:54;17.67;;;8.82;;
44694;SDS011;32845;59.422;17.930;2022-09-27T13:59:33;17.15;;;8.57;;
44694;SDS011;32845;59.422;17.930;2022-09-27T14:09:01;16.50;;;8.02;;
44694;SDS011;32845;59.422;17.930;2022-09-27T14:13:37;15.32;;;7.68;;
44694;SDS011;32845;59.422;17.930;2022-09-27T14:18:09;14.90;;;7.50;;
44694;SDS011;32845;59.422;17.930;2022-09-27T14:22:43;12.95;;;8.02;;
44694;SDS011;32845;59.422;17.930;2022-09-27T14:32:15;13.15;;;7.00;;
44694;SDS011;32845;59.422;17.930;2022-09-27T14:36:48;13.68;;;7.65;;
44694;SDS011;32845;59.422;17.930;2022-09-27T14:41:37;10.30;;;7.25;;
44694;SDS011;32845;59.422;17.930;2022-09-27T14:46:23;23.40;;;7.47;;
44694;SDS011;32845;59.422;17.930;2022-09-27T14:55:32;16.33;;;7.28;;
44694;SDS011;32845;59.422;17.930;2022-09-27T15:00:14;13.70;;;6.85;;
44694;SDS011;32845;59.422;17.930;2022-09-27T15:04:49;15.00;;;6.50;;
44694;SDS011;32845;59.422;17.930;2022-09-27T15:09:26;11.18;;;6.75;;
44694;SDS011;32845;59.422;17.930;2022-09-27T15:13:57;14.02;;;6.65;;
44694;SDS011;32845;59.422;17.930;2022-09-27T15:18:33;14.00;;;6.43;;
44694;SDS011;32845;59.422;17.930;2022-09-27T15:23:24;10.23;;;6.53;;
44694;SDS011;32845;59.422;17.930;2022-09-27T15:27:57;12.82;;;6.50;;
44694;SDS011;32845;59.422;17.930;2022-09-27T15:32:28;9.32;;;6.03;;
44694;SDS011;32845;59.422;17.930;2022-09-27T15:37:00;13.77;;;5.90;;
44694;SDS011;32845;59.422;17.930;2022-09-27T15:41:57;13.23;;;6.28;;
44694;SDS011;32845;59.422;17.930;2022-09-27T15:46:39;13.38;;;6.47;;
44694;SDS011;32845;59.422;17.930;2022-09-27T15:56:18;13.75;;;6.05;;
44694;SDS011;32845;59.422;17.930;2022-09-27T16:00:55;14.60;;;5.78;;
44694;SDS011;32845;59.422;17.930;2022-09-27T16:05:27;9.75;;;5.15;;
44694;SDS011;32845;59.422;17.930;2022-09-27T16:10:09;10.88;;;5.10;;
44694;SDS011;32845;59.422;17.930;2022-09-27T16:14:55;13.07;;;5.68;;
44694;SDS011;32845;59.422;17.930;2022-09-27T16:19:31;11.93;;;5.63;;
44694;SDS011;32845;59.422;17.930;2022-09-27T16:24:01;8.75;;;5.45;;
44694;SDS011;32845;59.422;17.930;2022-09-27T16:28:32;10.88;;;6.40;;
44694;SDS011;32845;59.422;17.930;2022-09-27T16:33:04;11.50;;;6.25;;
44694;SDS011;32845;59.422;17.930;2022-09-27T16:37:35;18.42;;;6.40;;
44694;SDS011;32845;59.422;17.930;2022-09-27T16:42:06;11.77;;;6.55;;
44694;SDS011;32845;59.422;17.930;2022-09-27T16:46:41;10.70;;;6.50;;
44694;SDS011;32845;59.422;17.930;2022-09-27T16:51:21;10.00;;;6.00;;
44694;SDS011;32845;59.422;17.930;2022-09-27T16:56:10;10.77;;;6.22;;
44694;SDS011;32845;59.422;17.930;2022-09-27T17:00:41;10.80;;;6.30;;
44694;SDS011;32845;59.422;17.930;2022-09-27T17:05:12;9.65;;;6.78;;
44694;SDS011;32845;59.422;17.930;2022-09-27T17:09:43;12.40;;;7.05;;
44694;SDS011;32845;59.422;17.930;2022-09-27T17:14:14;13.25;;;6.88;;
44694;SDS011;32845;59.422;17.930;2022-09-27T17:18:46;20.17;;;7.28;;
44694;SDS011;32845;59.422;17.930;2022-09-27T17:23:16;16.40;;;7.05;;
44694;SDS011;32845;59.422;17.930;2022-09-27T17:27:47;15.40;;;7.20;;
44694;SDS011;32845;59.422;17.930;2022-09-27T17:32:18;14.95;;;7.28;;
44694;SDS011;32845;59.422;17.930;2022-09-27T17:36:53;16.38;;;8.07;;
44694;SDS011;32845;59.422;17.930;2022-09-27T17:41:34;16.92;;;7.63;;
44694;SDS011;32845;59.422;17.930;2022-09-27T17:46:07;16.75;;;7.30;;
44694;SDS011;32845;59.422;17.930;2022-09-27T17:50:39;14.45;;;7.53;;
44694;SDS011;32845;59.422;17.930;2022-09-27T17:55:09;13.70;;;7.15;;
44694;SDS011;32845;59.422;17.930;2022-09-27T17:59:40;17.55;;;7.80;;
44694;SDS011;32845;59.422;17.930;2022-09-27T18:04:13;26.88;;;7.82;;
44694;SDS011;32845;59.422;17.930;2022-09-27T18:08:45;11.43;;;6.68;;
44694;SDS011;32845;59.422;17.930;2022-09-27T18:13:16;14.95;;;7.07;;
44694;SDS011;32845;59.422;17.930;2022-09-27T18:17:48;16.10;;;6.72;;
44694;SDS011;32845;59.422;17.930;2022-09-27T18:22:24;14.88;;;7.57;;
44694;SDS011;32845;59.422;17.930;2022-09-27T18:26:58;11.33;;;6.80;;
44694;SDS011;32845;59.422;17.930;2022-09-27T18:31:29;10.43;;;6.15;;
44694;SDS011;32845;59.422;17.930;2022-09-27T18:36:01;15.25;;;6.78;;
44694;SDS011;32845;59.422;17.930;2022-09-27T18:40:38;13.88;;;6.45;;
44694;SDS011;32845;59.422;17.930;2022-09-27T18:45:08;12.60;;;7.25;;
44694;SDS011;32845;59.422;17.930;2022-09-27T18:49:39;11.75;;;6.82;;
44694;SDS011;32845;59.422;17.930;2022-09-27T18:54:14;13.75;;;6.70;;
44694;SDS011;32845;59.422;17.930;2022-09-27T18:58:49;11.13;;;6.78;;
44694;SDS011;32845;59.422;17.930;2022-09-27T19:03:20;15.45;;;6.78;;
44694;SDS011;32845;59.422;17.930;2022-09-27T19:07:51;12.77;;;6.65;;
44694;SDS011;32845;59.422;17.930;2022-09-27T19:12:27;10.80;;;6.35;;
44694;SDS011;32845;59.422;17.930;2022-09-27T19:16:57;16.75;;;6.97;;
44694;SDS011;32845;59.422;17.930;2022-09-27T19:21:28;10.00;;;6.50;;
44694;SDS011;32845;59.422;17.930;2022-09-27T19:25:59;12.60;;;6.63;;
44694;SDS011;32845;59.422;17.930;2022-09-27T19:30:31;13.02;;;6.18;;
44694;SDS011;32845;59.422;17.930;2022-09-27T19:35:02;11.93;;;6.13;;
44694;SDS011;32845;59.422;17.930;2022-09-27T19:39:33;11.60;;;5.53;;
44694;SDS011;32845;59.422;17.930;2022-09-27T19:44:03;13.05;;;6.10;;
44694;SDS011;32845;59.422;17.930;2022-09-27T19:48:35;9.77;;;5.95;;
44694;SDS011;32845;59.422;17.930;2022-09-27T19:53:07;8.30;;;5.43;;
44694;SDS011;32845;59.422;17.930;2022-09-27T19:57:38;12.68;;;5.50;;
44694;SDS011;32845;59.422;17.930;2022-09-27T20:02:09;16.52;;;6.07;;
44694;SDS011;32845;59.422;17.930;2022-09-27T20:06:39;13.77;;;6.05;;
44694;SDS011;32845;59.422;17.930;2022-09-27T20:11:20;9.00;;;5.30;;
44694;SDS011;32845;59.422;17.930;2022-09-27T20:15:58;11.15;;;5.53;;
44694;SDS011;32845;59.422;17.930;2022-09-27T20:20:39;8.75;;;5.07;;
44694;SDS011;32845;59.422;17.930;2022-09-27T20:25:10;8.55;;;5.00;;
44694;SDS011;32845;59.422;17.930;2022-09-27T20:29:40;11.52;;;5.88;;
44694;SDS011;32845;59.422;17.930;2022-09-27T20:34:12;12.68;;;4.93;;
44694;SDS011;32845;59.422;17.930;2022-09-27T20:38:45;13.63;;;5.45;;
44694;SDS011;32845;59.422;17.930;2022-09-27T20:43:20;11.85;;;5.60;;
44694;SDS011;32845;59.422;17.930;2022-09-27T20:47:51;9.73;;;5.20;;
44694;SDS011;32845;59.422;17.930;2022-09-27T20:52:22;11.82;;;5.90;;
44694;SDS011;32845;59.422;17.930;2022-09-27T20:56:52;8.52;;;5.13;;
44694;SDS011;32845;59.422;17.930;2022-09-27T21:01:24;12.50;;;5.13;;
44694;SDS011;32845;59.422;17.930;2022-09-27T21:05:56;9.27;;;5.50;;
44694;SDS011;32845;59.422;17.930;2022-09-27T21:10:27;9.55;;;5.38;;
44694;SDS011;32845;59.422;17.930;2022-09-27T21:14:58;10.52;;;6.72;;
44694;SDS011;32845;59.422;17.930;2022-09-27T21:19:29;12.35;;;5.65;;
44694;SDS011;32845;59.422;17.930;2022-09-27T21:24:00;10.43;;;5.90;;
44694;SDS011;32845;59.422;17.930;2022-09-27T21:28:35;9.48;;;4.95;;
44694;SDS011;32845;59.422;17.930;2022-09-27T21:33:07;15.05;;;6.05;;
44694;SDS011;32845;59.422;17.930;2022-09-27T21:37:37;12.45;;;5.80;;
44694;SDS011;32845;59.422;17.930;2022-09-27T21:42:08;9.43;;;5.88;;
44694;SDS011;32845;59.422;17.930;2022-09-27T21:46:39;10.23;;;5.97;;
44694;SDS011;32845;59.422;17.930;2022-09-27T21:51:11;10.25;;;5.90;;
44694;SDS011;32845;59.422;17.930;2022-09-27T21:55:53;10.02;;;5.90;;
44694;SDS011;32845;59.422;17.930;2022-09-27T22:00:24;9.23;;;4.93;;
44694;SDS011;32845;59.422;17.930;2022-09-27T22:04:55;7.88;;;5.13;;
44694;SDS011;32845;59.422;17.930;2022-09-27T22:09:27;8.63;;;5.18;;
44694;SDS011;32845;59.422;17.930;2022-09-27T22:13:58;10.93;;;5.65;;
44694;SDS011;32845;59.422;17.930;2022-09-27T22:18:29;8.43;;;6.00;;
44694;SDS011;32845;59.422;17.930;2022-09-27T22:23:00;9.82;;;5.60;;
44694;SDS011;32845;59.422;17.930;2022-09-27T22:27:30;11.07;;;5.95;;
44694;SDS011;32845;59.422;17.930;2022-09-27T22:32:01;9.85;;;5.97;;
44694;SDS011;32845;59.422;17.930;2022-09-27T22:36:32;10.23;;;5.80;;
44694;SDS011;32845;59.422;17.930;2022-09-27T22:41:03;10.70;;;5.90;;
44694;SDS011;32845;59.422;17.930;2022-09-27T22:45:34;10.60;;;5.75;;
44694;SDS011;32845;59.422;17.930;2022-09-27T22:50:05;12.02;;;6.38;;
44694;SDS011;32845;59.422;17.930;2022-09-27T22:54:36;14.43;;;6.40;;
44694;SDS011;32845;59.422;17.930;2022-09-27T22:59:06;10.23;;;6.07;;
44694;SDS011;32845;59.422;17.930;2022-09-27T23:03:37;11.40;;;6.50;;
44694;SDS011;32845;59.422;17.930;2022-09-27T23:08:08;11.43;;;6.45;;
44694;SDS011;32845;59.422;17.930;2022-09-27T23:12:39;11.27;;;6.13;;
44694;SDS011;32845;59.422;17.930;2022-09-27T23:17:09;10.60;;;6.45;;
44694;SDS011;32845;59.422;17.930;2022-09-27T23:21:40;11.35;;;6.85;;
44694;SDS011;32845;59.422;17.930;2022-09-27T23:26:12;9.95;;;6.32;;
44694;SDS011;32845;59.422;17.930;2022-09-27T23:30:44;13.15;;;6.82;;
44694;SDS011;32845;59.422;17.930;2022-09-27T23:35:14;12.75;;;6.45;;
44694;SDS011;32845;59.422;17.930;2022-09-27T23:39:45;10.25;;;6.43;;
44694;SDS011;32845;59.422;17.930;2022-09-27T23:44:16;10.60;;;6.25;;
44694;SDS011;32845;59.422;17.930;2022-09-27T23:48:47;15.20;;;7.15;;
44694;SDS011;32845;59.422;17.930;2022-09-27T23:53:18;11.02;;;6.93;;
44694;SDS011;32845;59.422;17.930;2022-09-27T23:57:49;10.63;;;7.22;;
